Time;durP1;ratioP1;P1;durP2;ratioP2;P2;SDS_P1;SDS_P2;PMS_P1;PMS_P2;Temp;Humidity;BMP_temperature;BMP_pressure;BME280_temperature;BME280_humidity;BME280_pressure;Samples;Min_cycle;Max_cycle;Signal;HPM_P1;HPM_P2
2023/03/20 00:00:26;;;;;;;;;16.25;16.25;;;;;10.70;56.78;101781.47;6250076;22;45201;-68
2023/03/20 00:02:51;;;;;;;;;20.00;18.00;;;;;10.62;56.95;101775.38;6277750;22;45322;-68
2023/03/20 00:05:23;;;;;;;;;19.75;17.75;;;;;10.60;56.38;101787.88;6277912;22;45525;-69
2023/03/20 00:07:49;;;;;;;;;18.50;17.00;;;;;10.55;56.78;101778.13;6276991;22;45299;-68
2023/03/20 00:10:17;;;;;;;;;10.00;6.00;;;;;10.45;56.93;101771.16;6277221;22;45374;-68
2023/03/20 00:12:43;;;;;;;;;23.75;23.00;;;;;10.50;57.18;101776.44;6249939;22;45395;-68
2023/03/20 00:15:28;;;;;;;;;24.00;20.00;;;;;10.22;56.92;101747.47;6277889;22;45428;-68
2023/03/20 00:17:55;;;;;;;;;24.00;24.00;;;;;10.01;57.08;101728.22;6277656;22;45285;-68
2023/03/20 00:20:21;;;;;;;;;23.00;22.25;;;;;10.27;56.95;101788.31;6277460;22;45618;-68
2023/03/20 00:22:47;;;;;;;;;24.50;22.00;;;;;10.02;56.97;101751.31;6277684;22;45193;-68
2023/03/20 00:25:14;;;;;;;;;23.75;23.00;;;;;9.85;57.08;101728.44;6249704;22;45806;-68
2023/03/20 00:27:41;;;;;;;;;29.75;23.75;;;;;9.94;57.65;101754.97;6276877;22;46375;-68
2023/03/20 00:30:21;;;;;;;;;25.75;24.50;;;;;9.87;57.56;101759.50;6250009;22;45855;-69
2023/03/20 00:32:47;;;;;;;;;29.00;24.75;;;;;10.01;57.53;101786.00;6248362;22;45228;-68
2023/03/20 00:35:22;;;;;;;;;27.50;24.75;;;;;9.97;57.91;101779.84;6277760;22;45249;-69
2023/03/20 00:37:49;;;;;;;;;25.00;22.75;;;;;9.86;57.66;101765.75;6277357;22;45376;-68
2023/03/20 00:40:14;;;;;;;;;25.75;21.75;;;;;10.06;58.09;101788.63;6277660;22;45564;-68
2023/03/20 00:42:40;;;;;;;;;25.75;22.00;;;;;10.00;58.22;101776.25;6277549;22;45459;-68
2023/03/20 00:45:12;;;;;;;;;21.50;20.50;;;;;10.06;57.95;101791.28;6277170;22;45368;-68
2023/03/20 00:47:40;;;;;;;;;26.75;25.50;;;;;9.97;58.16;101777.19;6277281;22;45352;-68
2023/03/20 00:50:14;;;;;;;;;23.25;23.25;;;;;9.91;57.83;101758.56;6249963;22;45778;-68
2023/03/20 00:52:40;;;;;;;;;29.50;28.00;;;;;9.94;57.95;101766.53;6276994;22;45598;-68
2023/03/20 00:55:05;;;;;;;;;29.00;24.00;;;;;9.78;58.17;101736.50;6277423;22;45355;-68
2023/03/20 00:57:39;;;;;;;;;18.50;17.75;;;;;9.96;57.80;101772.72;6276920;22;45362;-68
2023/03/20 01:00:39;;;;;;;;;29.50;24.00;;;;;9.79;58.21;101764.97;6277202;22;45352;-68
2023/03/20 01:03:16;;;;;;;;;23.00;23.00;;;;;9.87;58.21;101777.31;6181778;22;45311;-68
2023/03/20 01:05:42;;;;;;;;;22.75;20.25;;;;;9.89;58.23;101780.81;6277587;22;45526;-68
2023/03/20 01:08:22;;;;;;;;;27.00;22.75;;;;;9.83;58.48;101771.13;6249070;22;47380;-68
2023/03/20 01:10:57;;;;;;;;;22.25;21.75;;;;;9.71;58.28;101763.28;6277316;22;45438;-68
2023/03/20 01:13:28;;;;;;;;;22.00;21.50;;;;;9.89;58.20;101784.41;6277222;22;45451;-68
2023/03/20 01:15:55;;;;;;;;;19.25;18.25;;;;;9.68;58.36;101744.66;6277137;22;45486;-68
2023/03/20 01:18:22;;;;;;;;;19.25;17.50;;;;;9.79;58.63;101766.75;6276640;22;45903;-68
2023/03/20 01:20:48;;;;;;;;;27.00;23.00;;;;;9.88;58.38;101771.06;6249672;22;45397;-68
2023/03/20 01:23:14;;;;;;;;;17.00;16.75;;;;;9.83;58.31;101776.47;6249546;22;45615;-68
2023/03/20 01:25:40;;;;;;;;;21.00;19.50;;;;;9.90;58.55;101788.81;6249197;22;45550;-68
2023/03/20 01:28:19;;;;;;;;;19.75;18.00;;;;;9.62;58.82;101738.50;6249075;22;47966;-68
2023/03/20 01:30:45;;;;;;;;;16.50;16.50;;;;;9.96;58.72;101802.06;6275715;22;44955;-68
2023/03/20 01:33:22;;;;;;;;;17.25;17.25;;;;;9.73;58.24;101753.50;6277298;22;45441;-68
2023/03/20 01:35:49;;;;;;;;;13.25;13.25;;;;;9.73;58.49;101764.16;6277380;22;45386;-68
2023/03/20 01:38:24;;;;;;;;;19.25;17.00;;;;;9.68;58.77;101753.53;6276720;22;45283;-68
2023/03/20 01:40:56;;;;;;;;;16.00;14.75;;;;;9.89;58.35;101797.72;6249629;22;45672;-68
2023/03/20 01:43:23;;;;;;;;;15.00;14.75;;;;;9.82;58.83;101780.03;6249744;22;45331;-68
2023/03/20 01:46:14;;;;;;;;;20.25;17.00;;;;;9.88;58.57;101793.28;6277261;22;45390;-68
2023/03/20 01:48:48;;;;;;;;;19.75;16.75;;;;;9.90;58.67;101796.81;6249876;22;47070;-68
2023/03/20 01:51:18;;;;;;;;;18.25;16.50;;;;;9.84;58.37;101783.56;6277103;22;45470;-68
2023/03/20 01:53:47;;;;;;;;;14.75;14.25;;;;;9.78;58.42;101776.50;6276444;22;45383;-68
2023/03/20 01:56:16;;;;;;;;;17.50;15.50;;;;;9.86;58.40;101788.88;6248522;22;45454;-68
2023/03/20 01:58:46;;;;;;;;;14.00;13.50;;;;;9.67;58.32;101759.75;6276509;22;45305;-68
2023/03/20 02:01:13;;;;;;;;;16.00;13.50;;;;;9.77;58.06;101774.78;6249123;22;45368;-68
2023/03/20 02:03:43;;;;;;;;;16.00;16.00;;;;;9.73;58.55;101788.16;6277067;22;45307;-68
2023/03/20 02:06:10;;;;;;;;;15.25;15.25;;;;;9.68;58.45;101782.88;6277436;22;45370;-68
2023/03/20 02:08:47;;;;;;;;;17.00;15.75;;;;;9.62;58.59;101785.59;6275929;22;45252;-68
2023/03/20 02:11:15;;;;;;;;;19.50;17.50;;;;;9.48;58.86;101772.44;6276262;22;45532;-69
2023/03/20 02:13:41;;;;;;;;;15.75;15.25;;;;;9.48;58.55;101774.22;6277021;22;45419;-68
2023/03/20 02:16:12;;;;;;;;;10.50;10.50;;;;;9.54;58.89;101777.72;6248911;22;45360;-68
2023/03/20 02:18:40;;;;;;;;;22.00;17.25;;;;;9.36;58.90;101752.13;6276957;22;46443;-68
2023/03/20 02:21:11;;;;;;;;;19.25;17.50;;;;;9.54;58.85;101775.03;6276819;22;45754;-68
2023/03/20 02:24:11;;;;;;;;;16.75;16.00;;;;;9.48;59.06;101767.09;6249218;22;45268;-69
2023/03/20 02:27:11;;;;;;;;;10.50;10.50;;;;;9.44;59.01;101765.38;6247376;22;45312;-68
2023/03/20 02:29:44;;;;;;;;;22.50;19.00;;;;;9.49;58.97;101775.97;6276966;22;46664;-68
2023/03/20 02:32:31;;;;;;;;;17.75;17.50;;;;;9.45;59.21;101764.47;6276062;22;45339;-68
2023/03/20 02:35:24;;;;;;;;;18.00;16.25;;;;;9.43;59.20;101768.94;6277250;22;45334;-68
2023/03/20 02:37:52;;;;;;;;;18.75;16.50;;;;;9.41;59.05;101771.63;6276572;22;45497;-68
2023/03/20 02:40:49;;;;;;;;;19.75;16.00;;;;;9.41;59.49;101770.75;6276458;22;46075;-68
2023/03/20 02:43:27;;;;;;;;;13.75;9.50;;;;;9.42;59.68;101773.41;6276758;22;45403;-69
2023/03/20 02:46:02;;;;;;;;;16.75;16.75;;;;;9.32;59.56;101754.84;6248632;22;45389;-68
2023/03/20 02:48:55;;;;;;;;;20.25;17.25;;;;;9.38;59.36;101760.13;6249032;22;45426;-68
2023/03/20 02:51:39;;;;;;;;;19.25;17.50;;;;;9.27;59.79;101753.13;6276778;22;46284;-68
2023/03/20 02:54:07;;;;;;;;;17.50;17.00;;;;;9.36;59.51;101768.13;6275799;22;45252;-68
2023/03/20 02:56:32;;;;;;;;;18.50;18.00;;;;;9.35;59.57;101766.34;6248141;22;45434;-68
2023/03/20 02:59:19;;;;;;;;;18.50;14.75;;;;;9.34;59.34;101769.03;6249098;22;45437;-68
2023/03/20 03:01:56;;;;;;;;;16.00;15.75;;;;;9.22;59.37;101744.31;6248471;22;47161;-68
2023/03/20 03:04:27;;;;;;;;;19.75;15.25;;;;;9.29;59.50;101766.44;6248920;22;45269;-68
2023/03/20 03:06:58;;;;;;;;;23.75;20.50;;;;;9.07;59.45;101723.13;6276424;22;45413;-68
2023/03/20 03:09:32;;;;;;;;;12.25;11.75;;;;;9.11;59.86;101730.22;6275981;22;45284;-68
2023/03/20 03:12:11;;;;;;;;;15.50;13.00;;;;;9.24;59.73;101760.28;6248599;22;47414;-68
2023/03/20 03:14:41;;;;;;;;;19.25;17.50;;;;;9.23;59.90;101756.72;6247933;22;45330;-68
2023/03/20 03:17:09;;;;;;;;;17.00;16.00;;;;;9.16;59.68;101749.69;6278020;22;45193;-68
2023/03/20 03:19:38;;;;;;;;;15.50;14.75;;;;;9.09;59.70;101745.34;6277396;22;45534;-68
2023/03/20 03:22:04;;;;;;;;;15.75;14.25;;;;;9.02;59.75;101723.22;6249557;22;46096;-68
2023/03/20 03:24:36;;;;;;;;;20.25;18.00;;;;;9.12;59.58;101739.97;6276903;22;45351;-68
2023/03/20 03:27:12;;;;;;;;;16.25;14.00;;;;;9.17;60.28;101751.47;6249797;22;45527;-68
2023/03/20 03:29:39;;;;;;;;;19.00;16.25;;;;;9.23;59.65;101759.38;6278367;22;45326;-68
2023/03/20 03:32:06;;;;;;;;;15.50;15.50;;;;;9.27;59.61;101766.44;6269394;22;47280;-68
2023/03/20 03:34:33;;;;;;;;;18.25;16.75;;;;;9.22;59.49;101757.63;6246555;22;45200;-68
2023/03/20 03:37:05;;;;;;;;;21.25;20.25;;;;;9.20;59.40;101756.75;6247165;22;45320;-68
2023/03/20 03:39:31;;;;;;;;;14.25;14.00;;;;;9.21;59.84;101755.84;6246715;22;45424;-68
2023/03/20 03:42:08;;;;;;;;;17.00;13.75;;;;;9.07;59.51;101732.03;6244630;22;47052;-68
2023/03/20 03:44:43;;;;;;;;;16.00;15.00;;;;;9.00;59.54;101722.31;6247213;22;45601;-68
2023/03/20 03:47:18;;;;;;;;;20.50;15.00;;;;;8.98;59.26;101723.25;6246873;22;45468;-68
2023/03/20 03:49:51;;;;;;;;;16.50;16.00;;;;;8.84;59.51;101704.75;6246406;22;45261;-68
2023/03/20 03:52:21;;;;;;;;;14.00;13.00;;;;;9.08;59.50;101740.91;6247150;22;45555;-68
2023/03/20 03:54:52;;;;;;;;;15.00;14.00;;;;;9.12;59.45;101742.63;6244630;22;45348;-68
2023/03/20 03:57:24;;;;;;;;;12.00;10.00;;;;;9.04;59.62;101742.72;6246820;22;45312;-68
2023/03/20 03:59:52;;;;;;;;;14.25;13.00;;;;;9.00;59.82;101737.41;6247120;22;45330;-68
2023/03/20 04:02:21;;;;;;;;;16.50;15.00;;;;;8.83;59.32;101711.84;6244403;22;47942;-68
2023/03/20 04:04:51;;;;;;;;;21.00;15.50;;;;;9.02;59.94;101748.94;6246441;22;45393;-68
2023/03/20 04:07:17;;;;;;;;;14.25;13.25;;;;;8.50;59.99;101663.38;6244243;22;45241;-68
2023/03/20 04:09:42;;;;;;;;;15.50;14.25;;;;;8.74;60.13;101714.59;6245537;22;45530;-68
2023/03/20 04:12:34;;;;;;;;;17.75;15.75;;;;;8.93;59.82;101746.38;6244814;22;48445;-68
2023/03/20 04:15:00;;;;;;;;;21.75;19.00;;;;;8.97;59.93;101754.31;6246949;22;45671;-68
2023/03/20 04:17:25;;;;;;;;;15.25;12.75;;;;;8.63;59.78;101705.81;6244550;22;45349;-68
2023/03/20 04:19:50;;;;;;;;;16.00;15.00;;;;;8.97;60.07;101754.31;6246653;22;45434;-68
2023/03/20 04:22:16;;;;;;;;;14.50;12.00;;;;;8.97;60.23;101770.31;6246190;22;45957;-68
2023/03/20 04:24:41;;;;;;;;;14.25;13.25;;;;;8.85;60.36;101743.78;6246209;22;45219;-68
2023/03/20 04:27:06;;;;;;;;;18.00;14.25;;;;;8.96;60.27;101770.31;6246104;22;45205;-68
2023/03/20 04:29:32;;;;;;;;;15.00;13.25;;;;;8.66;60.02;101727.09;6244615;22;45336;-68
2023/03/20 04:31:58;;;;;;;;;15.25;14.75;;;;;8.49;59.98;101709.47;6266767;22;45225;-68
2023/03/20 04:34:24;;;;;;;;;13.00;9.00;;;;;8.82;60.82;101760.69;6277751;22;45628;-68
2023/03/20 04:36:49;;;;;;;;;14.00;12.00;;;;;8.75;59.90;101748.28;6275432;22;45272;-68
2023/03/20 04:39:15;;;;;;;;;19.00;15.00;;;;;8.86;60.29;101762.41;6276773;22;45268;-68
2023/03/20 04:41:41;;;;;;;;;13.00;9.50;;;;;8.81;60.35;101752.69;6249736;22;46823;-68
2023/03/20 04:44:06;;;;;;;;;10.25;10.25;;;;;8.84;60.16;101758.88;6277855;22;45319;-68
2023/03/20 04:46:31;;;;;;;;;10.50;9.50;;;;;8.82;60.35;101746.47;6249585;22;45681;-68
2023/03/20 04:48:57;;;;;;;;;15.25;14.00;;;;;8.91;60.17;101767.69;6277732;22;45307;-68
2023/03/20 04:51:22;;;;;;;;;13.75;13.75;;;;;8.82;60.30;101750.03;6277755;22;45327;-68
2023/03/20 04:53:47;;;;;;;;;15.00;15.00;;;;;8.80;60.21;101737.59;6274826;22;45249;-68
2023/03/20 04:56:13;;;;;;;;;16.00;14.75;;;;;8.89;60.60;101756.19;6277605;22;45236;-68
2023/03/20 04:58:38;;;;;;;;;14.50;11.75;;;;;8.99;60.26;101768.50;6277566;22;45639;-68
2023/03/20 05:01:04;;;;;;;;;14.00;12.75;;;;;8.69;60.42;101716.44;6276988;22;45996;-68
2023/03/20 05:03:29;;;;;;;;;13.00;13.00;;;;;8.95;60.30;101772.06;6275271;22;45335;-68
2023/03/20 05:05:54;;;;;;;;;15.00;12.75;;;;;8.66;60.44;101721.78;6275703;22;45228;-68
2023/03/20 05:08:20;;;;;;;;;15.00;13.50;;;;;8.87;60.74;101753.53;6277082;22;45300;-68
2023/03/20 05:10:45;;;;;;;;;13.50;13.50;;;;;8.93;60.61;101754.38;6249056;22;48201;-68
2023/03/20 05:13:10;;;;;;;;;14.25;13.25;;;;;8.77;60.47;101729.66;6276970;22;45272;-68
2023/03/20 05:15:36;;;;;;;;;17.00;16.75;;;;;8.67;60.84;101718.19;6275955;22;45322;-68
2023/03/20 05:18:02;;;;;;;;;19.00;15.00;;;;;8.84;60.81;101745.56;6277758;22;45373;-67
2023/03/20 05:20:27;;;;;;;;;18.50;14.75;;;;;8.80;60.60;101733.16;6250014;22;47328;-68
2023/03/20 05:22:53;;;;;;;;;18.50;13.50;;;;;8.90;61.07;101748.19;6249673;22;45475;-68
2023/03/20 05:25:18;;;;;;;;;16.50;14.75;;;;;8.98;61.02;101757.88;6277234;22;45225;-68
2023/03/20 05:27:45;;;;;;;;;16.00;14.50;;;;;8.90;60.99;101747.28;6274317;22;45639;-68
2023/03/20 05:30:12;;;;;;;;;19.00;17.00;;;;;8.96;60.90;101757.88;6249656;22;48082;-68
2023/03/20 05:32:37;;;;;;;;;16.50;13.50;;;;;8.95;60.77;101755.22;6276526;22;45320;-68
2023/03/20 05:35:03;;;;;;;;;1.75;1.50;;;;;8.90;61.00;101741.94;6277886;22;45367;-68
2023/03/20 05:37:29;;;;;;;;;15.00;13.75;;;;;9.00;61.04;101753.41;6276466;22;45502;-68
2023/03/20 05:39:54;;;;;;;;;13.00;13.00;;;;;9.00;61.07;101748.94;6277399;22;46074;-68
2023/03/20 05:42:20;;;;;;;;;13.75;11.25;;;;;9.01;60.84;101744.53;6277140;22;45496;-68
2023/03/20 05:44:45;;;;;;;;;15.00;12.00;;;;;9.10;60.87;101747.06;6276956;22;45158;-68
2023/03/20 05:47:10;;;;;;;;;14.75;11.50;;;;;9.03;60.71;101740.06;6275130;22;45591;-68
2023/03/20 05:49:36;;;;;;;;;9.25;8.75;;;;;9.03;60.58;101737.41;6277324;22;46158;-68
2023/03/20 05:52:01;;;;;;;;;11.50;11.00;;;;;9.17;60.55;101758.56;6277193;22;45194;-68
2023/03/20 05:54:26;;;;;;;;;11.25;10.25;;;;;9.17;60.37;101750.56;6276575;22;45721;-68
2023/03/20 05:56:52;;;;;;;;;15.00;13.00;;;;;9.17;60.79;101751.47;6277252;22;45404;-68
2023/03/20 05:59:17;;;;;;;;;13.00;10.50;;;;;9.30;60.60;101773.50;6277443;22;45578;-68
2023/03/20 06:01:42;;;;;;;;;13.50;10.75;;;;;9.05;60.31;101720.50;6277027;22;45201;-68
2023/03/20 06:04:08;;;;;;;;;9.25;9.00;;;;;9.31;60.27;101747.78;6277710;22;45452;-68
2023/03/20 06:06:36;;;;;;;;;18.75;12.75;;;;;9.29;60.08;101747.78;6248864;22;45284;-68
2023/03/20 06:09:03;;;;;;;;;9.75;9.75;;;;;9.37;60.00;101756.59;6276939;22;45529;-68
2023/03/20 06:11:28;;;;;;;;;12.00;10.00;;;;;9.46;59.90;101774.25;6277262;22;45312;-68
2023/03/20 06:13:54;;;;;;;;;13.75;10.00;;;;;9.45;59.99;101773.38;6249424;22;45355;-68
2023/03/20 06:16:20;;;;;;;;;14.00;11.25;;;;;9.39;59.37;101757.44;6273789;22;45375;-68
2023/03/20 06:18:45;;;;;;;;;10.75;9.00;;;;;9.49;59.44;101774.22;6276316;22;45335;-68
2023/03/20 06:21:11;;;;;;;;;9.50;9.50;;;;;9.35;59.10;101761.03;6276735;22;45309;-68
2023/03/20 06:23:37;;;;;;;;;11.50;11.00;;;;;9.47;59.26;101765.31;6276598;22;45311;-68
2023/03/20 06:26:03;;;;;;;;;10.50;9.25;;;;;9.49;59.49;101774.22;6249038;22;46171;-68
2023/03/20 06:28:28;;;;;;;;;11.25;11.25;;;;;9.48;59.92;101767.09;6276728;22;46186;-68
2023/03/20 06:30:54;;;;;;;;;11.75;11.75;;;;;9.50;59.64;101764.44;6275617;22;45284;-68
2023/03/20 06:33:20;;;;;;;;;15.75;13.00;;;;;9.44;59.49;101765.38;6273590;22;45417;-68
2023/03/20 06:35:47;;;;;;;;;15.25;13.75;;;;;9.50;59.09;101772.41;6247437;22;45459;-66
2023/03/20 06:38:12;;;;;;;;;12.00;12.00;;;;;9.52;59.42;101775.94;6248124;22;47238;-67
2023/03/20 06:40:38;;;;;;;;;12.00;11.50;;;;;9.53;59.08;101783.94;6275547;22;45505;-67
2023/03/20 06:43:03;;;;;;;;;14.75;12.00;;;;;9.43;59.45;101767.16;6247663;22;45334;-68
2023/03/20 06:45:29;;;;;;;;;18.25;16.00;;;;;9.51;59.22;101777.75;6248536;22;45353;-68
2023/03/20 06:47:54;;;;;;;;;12.50;10.25;;;;;9.52;59.49;101767.94;6248652;22;47241;-68
2023/03/20 06:50:20;;;;;;;;;10.25;10.00;;;;;9.50;59.91;101761.75;6276403;22;45320;-67
2023/03/20 06:52:46;;;;;;;;;12.75;12.25;;;;;9.45;59.40;101753.81;6275855;22;45641;-67
2023/03/20 06:55:11;;;;;;;;;13.25;12.75;;;;;9.59;59.77;101778.53;6249537;22;45472;-67
2023/03/20 06:57:37;;;;;;;;;13.00;10.75;;;;;9.53;59.45;101770.59;6249308;22;47713;-68
2023/03/20 07:00:04;;;;;;;;;10.25;9.75;;;;;9.51;59.22;101755.53;6250198;22;45266;-67
2023/03/20 07:02:29;;;;;;;;;10.25;9.25;;;;;9.60;59.37;101766.94;6275799;22;45295;-67
2023/03/20 07:05:02;;;;;;;;;11.50;11.50;;;;;9.61;59.47;101762.53;6249951;22;45584;-66
2023/03/20 07:07:27;;;;;;;;;16.25;13.50;;;;;9.64;58.69;101776.69;6275539;22;45929;-68
2023/03/20 07:09:53;;;;;;;;;13.25;11.00;;;;;9.58;59.25;101766.09;6277387;22;45284;-69
2023/03/20 07:12:21;;;;;;;;;11.00;9.00;;;;;9.38;58.76;101738.81;6275872;22;45451;-67
2023/03/20 07:14:47;;;;;;;;;12.00;10.00;;;;;9.54;59.29;101764.38;6277379;22;45578;-67
2023/03/20 07:17:12;;;;;;;;;9.00;8.50;;;;;9.67;58.78;101793.53;6277857;22;45927;-67
2023/03/20 07:19:38;;;;;;;;;14.00;9.00;;;;;9.32;59.05;101741.53;6274533;22;45492;-67
2023/03/20 07:22:07;;;;;;;;;10.25;9.25;;;;;9.63;58.93;101790.91;6248478;22;45388;-67
2023/03/20 07:24:33;;;;;;;;;10.00;9.25;;;;;9.51;58.95;101761.75;6249884;22;45395;-67
2023/03/20 07:26:59;;;;;;;;;11.25;9.75;;;;;9.72;58.98;101787.28;6277322;22;46069;-67
2023/03/20 07:29:24;;;;;;;;;10.50;8.75;;;;;9.49;59.02;101744.91;6277815;22;45248;-67
2023/03/20 07:31:50;;;;;;;;;10.00;9.00;;;;;9.80;58.92;101789.84;6277433;22;45157;-66
2023/03/20 07:34:15;;;;;;;;;10.25;9.25;;;;;9.75;58.96;101781.88;6250370;22;45519;-67
2023/03/20 07:36:41;;;;;;;;;13.25;10.00;;;;;9.49;59.04;101736.00;6249709;22;47539;-67
2023/03/20 07:39:07;;;;;;;;;10.00;10.00;;;;;9.89;59.01;101789.72;6277388;22;45359;-67
2023/03/20 07:41:33;;;;;;;;;9.00;9.00;;;;;9.72;58.69;101755.28;6276350;22;45740;-67
2023/03/20 07:43:58;;;;;;;;;9.75;9.00;;;;;9.95;58.27;101783.41;6277097;22;45378;-67
2023/03/20 07:46:25;;;;;;;;;15.25;12.50;;;;;9.84;58.48;101772.91;6276377;22;45295;-67
2023/03/20 07:48:50;;;;;;;;;10.00;7.75;;;;;9.97;58.69;101798.53;6277002;22;45593;-67
2023/03/20 07:51:15;;;;;;;;;11.75;9.00;;;;;10.01;58.40;101794.88;6277968;22;45334;-67
2023/03/20 07:53:41;;;;;;;;;8.00;8.00;;;;;9.89;58.92;101773.72;6248848;22;45425;-75
2023/03/20 07:56:07;;;;;;;;;8.75;8.75;;;;;9.94;58.82;101774.53;6247514;22;47799;-66
2023/03/20 07:58:32;;;;;;;;;9.00;9.00;;;;;10.00;58.54;101781.56;6260587;22;45389;-66
2023/03/20 08:00:58;;;;;;;;;13.25;11.25;;;;;9.88;58.72;101758.63;6240960;22;45590;-66
2023/03/20 08:03:23;;;;;;;;;9.50;9.00;;;;;9.99;58.93;101767.38;6272423;22;45604;-66
2023/03/20 08:05:49;;;;;;;;;11.50;10.25;;;;;10.08;59.15;101777.03;6245797;22;48282;-67
2023/03/20 08:08:14;;;;;;;;;11.25;9.50;;;;;10.03;58.67;101760.19;6246172;22;45300;-66
2023/03/20 08:10:40;;;;;;;;;8.25;8.25;;;;;10.17;58.87;101784.91;6275112;22;45348;-68
2023/03/20 08:13:05;;;;;;;;;9.00;8.00;;;;;10.04;58.74;101753.97;6276323;22;45260;-67
2023/03/20 08:15:31;;;;;;;;;11.00;9.50;;;;;9.85;58.90;101718.66;6275506;22;46632;-67
2023/03/20 08:17:57;;;;;;;;;9.75;9.75;;;;;10.26;59.22;101791.03;6248128;22;45326;-68
2023/03/20 08:20:23;;;;;;;;;10.25;8.25;;;;;10.27;59.03;101788.31;6276655;22;45463;-69
2023/03/20 08:22:49;;;;;;;;;8.75;8.25;;;;;10.25;59.38;101779.44;6246119;22;45423;-67
2023/03/20 08:25:15;;;;;;;;;11.00;11.00;;;;;10.35;58.73;101794.44;6248455;22;47056;-68
2023/03/20 08:27:41;;;;;;;;;11.25;8.25;;;;;10.33;59.06;101790.06;6276408;22;45231;-67
2023/03/20 08:30:08;;;;;;;;;8.75;6.75;;;;;10.42;58.66;101805.91;6248763;22;45445;-67
2023/03/20 08:32:34;;;;;;;;;9.25;8.00;;;;;10.44;58.68;101803.22;6276485;22;45268;-68
2023/03/20 08:35:00;;;;;;;;;13.00;10.00;;;;;10.48;59.14;101808.50;6273657;22;45367;-66
2023/03/20 08:37:25;;;;;;;;;10.25;10.00;;;;;10.35;58.86;101788.22;6275651;22;45568;-67
2023/03/20 08:39:50;;;;;;;;;13.75;11.25;;;;;10.38;58.77;101801.53;6274455;22;45415;-67
2023/03/20 08:42:16;;;;;;;;;13.00;11.25;;;;;10.41;59.06;101804.16;6248852;22;46113;-68
2023/03/20 08:44:41;;;;;;;;;10.75;9.75;;;;;10.18;59.11;101770.66;6274063;22;46027;-68
2023/03/20 08:47:09;;;;;;;;;11.25;10.00;;;;;10.52;58.50;101823.59;6274860;22;45336;-67
2023/03/20 08:49:34;;;;;;;;;11.00;10.75;;;;;10.53;58.92;101828.00;6248628;22;45399;-67
2023/03/20 08:52:00;;;;;;;;;10.00;8.50;;;;;10.50;58.61;101813.81;6245662;22;45441;-67
2023/03/20 08:54:25;;;;;;;;;9.75;9.00;;;;;10.60;59.25;101830.59;6248303;22;45287;-68
2023/03/20 08:56:51;;;;;;;;;10.25;10.00;;;;;10.46;59.18;101798.78;6274878;22;45444;-68
2023/03/20 08:59:18;;;;;;;;;8.75;8.75;;;;;10.68;58.67;101818.88;6274755;22;45563;-67
2023/03/20 09:01:43;;;;;;;;;8.50;8.50;;;;;10.54;58.76;101792.41;6247039;22;45517;-68
2023/03/20 09:04:10;;;;;;;;;9.00;8.50;;;;;10.78;58.74;101818.75;6275066;22;45312;-68
2023/03/20 09:06:37;;;;;;;;;7.75;5.00;;;;;10.60;58.49;101770.06;6275349;22;45665;-67
2023/03/20 09:09:03;;;;;;;;;8.25;4.75;;;;;10.87;58.98;101813.25;6275766;22;45442;-68
2023/03/20 09:11:28;;;;;;;;;9.50;8.00;;;;;10.80;58.26;101793.75;6245046;22;45827;-68
2023/03/20 09:13:54;;;;;;;;;9.75;8.75;;;;;10.90;58.43;101798.03;6272593;22;45408;-68
2023/03/20 09:16:19;;;;;;;;;7.50;7.50;;;;;11.05;58.47;101804.91;6244587;22;45448;-70
2023/03/20 09:18:45;;;;;;;;;8.25;8.25;;;;;11.09;58.31;101803.97;6273897;22;45712;-66
2023/03/20 09:21:11;;;;;;;;;9.00;9.00;;;;;11.11;58.19;101796.78;6275398;22;45487;-65
2023/03/20 09:23:36;;;;;;;;;7.25;6.00;;;;;11.15;58.45;101786.06;6274892;22;45540;-65
2023/03/20 09:26:02;;;;;;;;;10.00;9.00;;;;;11.29;58.23;101795.59;6274871;22;45544;-64
2023/03/20 09:28:27;;;;;;;;;10.00;10.00;;;;;11.21;58.59;101765.44;6275124;22;45268;-64
2023/03/20 09:30:56;;;;;;;;;9.75;9.25;;;;;11.40;58.16;101782.00;6271113;22;45360;-64
2023/03/20 09:33:22;;;;;;;;;12.00;10.00;;;;;11.47;58.16;101785.44;6248242;22;48317;-63
2023/03/20 09:35:48;;;;;;;;;9.00;6.00;;;;;11.47;57.94;101778.28;6273976;22;45366;-63
2023/03/20 09:38:13;;;;;;;;;11.25;8.75;;;;;11.60;58.29;101783.41;6275015;22;45316;-63
2023/03/20 09:40:47;;;;;;;;;10.00;10.00;;;;;11.66;58.17;101777.91;6276010;22;45422;-63
2023/03/20 09:43:32;;;;;;;;;7.75;7.75;;;;;11.72;58.10;101775.13;6246234;22;47430;-63
2023/03/20 09:46:12;;;;;;;;;9.50;7.25;;;;;11.80;58.29;101778.53;6274827;22;45426;-63
2023/03/20 09:48:58;;;;;;;;;10.50;10.00;;;;;11.90;58.08;101781.03;6275307;22;45352;-63
2023/03/20 09:51:36;;;;;;;;;9.75;6.50;;;;;11.93;57.70;101779.19;6274759;22;45383;-63
2023/03/20 09:54:10;;;;;;;;;11.25;9.00;;;;;12.00;57.72;101787.97;6274166;22;45371;-64
2023/03/20 09:56:36;;;;;;;;;5.75;5.75;;;;;12.00;57.47;101780.81;6273462;22;45446;-68
2023/03/20 09:59:05;;;;;;;;;8.25;7.25;;;;;12.13;57.62;101792.13;6273104;22;45365;-64
2023/03/20 10:01:42;;;;;;;;;9.00;6.50;;;;;12.04;57.46;101770.91;6270473;22;45779;-63
2023/03/20 10:04:10;;;;;;;;;5.25;4.50;;;;;12.19;57.56;101793.78;6274103;22;45523;-71
2023/03/20 10:06:36;;;;;;;;;8.75;6.00;;;;;12.25;57.68;101779.41;6273648;22;45706;-65
2023/03/20 10:09:10;;;;;;;;;8.75;7.50;;;;;12.29;57.42;101771.25;6275545;22;45733;-64
2023/03/20 10:11:54;;;;;;;;;3.00;2.25;;;;;12.43;57.31;101776.28;6275065;22;45307;-69
2023/03/20 10:14:57;;;;;;;;;3.00;3.00;;;;;12.54;57.07;101790.28;6266900;22;45263;-74
2023/03/20 10:17:28;;;;;;;;;5.50;3.75;;;;;12.62;56.61;101774.03;6274479;22;45683;-64
2023/03/20 10:20:12;;;;;;;;;3.00;3.00;;;;;12.67;56.70;101776.63;6272879;22;45375;-70
2023/03/20 10:22:52;;;;;;;;;3.25;2.25;;;;;12.52;56.76;101735.88;6273020;22;45351;-70
2023/03/20 10:25:21;;;;;;;;;2.75;2.75;;;;;12.80;56.49;101764.69;6274805;22;46081;-71
2023/03/20 10:27:56;;;;;;;;;2.50;1.50;;;;;12.88;56.60;101772.50;6248461;22;45799;-70
2023/03/20 10:30:28;;;;;;;;;3.00;1.25;;;;;12.83;56.12;101753.88;6275806;22;45371;-71
2023/03/20 10:33:29;;;;;;;;;3.00;3.00;;;;;13.04;55.82;101773.00;6276813;22;45280;-70
2023/03/20 10:36:07;;;;;;;;;4.00;3.25;;;;;13.10;55.42;101775.53;6184885;22;48342;-70
2023/03/20 10:38:48;;;;;;;;;1.75;1.75;;;;;13.12;55.53;101771.00;6242807;22;45971;-70
2023/03/20 10:41:20;;;;;;;;;5.25;3.00;;;;;13.08;55.62;101747.84;6273490;22;45749;-70
2023/03/20 10:43:49;;;;;;;;;2.25;2.25;;;;;13.19;55.00;101751.13;6273454;22;45454;-71
2023/03/20 10:46:22;;;;;;;;;1.75;1.75;;;;;13.27;55.59;101757.19;6247599;22;47239;-70
2023/03/20 10:48:55;;;;;;;;;4.00;3.00;;;;;13.34;55.45;101765.97;6272679;22;45652;-71
2023/03/20 10:51:30;;;;;;;;;2.50;2.50;;;;;13.20;55.43;101728.78;6248697;22;45359;-70
2023/03/20 10:54:01;;;;;;;;;2.00;2.00;;;;;13.37;55.34;101748.91;6244647;22;45527;-70
2023/03/20 10:56:35;;;;;;;;;4.50;2.00;;;;;13.49;55.15;101756.63;6246866;22;46878;-70
2023/03/20 10:59:22;;;;;;;;;2.00;2.00;;;;;13.31;54.48;101720.44;6275987;22;45436;-70
2023/03/20 11:01:47;;;;;;;;;3.25;2.25;;;;;13.58;54.98;101752.78;6247856;22;45484;-70
2023/03/20 11:04:12;;;;;;;;;2.25;2.00;;;;;13.53;54.96;101726.97;6248862;22;45668;-70
2023/03/20 11:07:06;;;;;;;;;1.75;1.75;;;;;13.64;54.91;101742.75;6275259;22;46358;-70
2023/03/20 11:09:31;;;;;;;;;1.25;1.25;;;;;13.66;54.65;101715.88;6272774;22;45388;-70
2023/03/20 11:11:58;;;;;;;;;3.00;2.00;;;;;13.77;54.85;101723.63;6274383;22;45692;-76
2023/03/20 11:14:30;;;;;;;;;4.00;3.00;;;;;13.87;54.37;101723.28;6272103;22;45439;-73
2023/03/20 11:17:02;;;;;;;;;3.00;3.00;;;;;13.92;54.10;101728.53;6247919;22;47013;-73
2023/03/20 11:19:32;;;;;;;;;2.75;2.75;;;;;13.95;54.15;101727.53;6246760;22;45666;-73
2023/03/20 11:22:05;;;;;;;;;3.00;2.25;;;;;13.99;54.35;101715.78;6248814;22;45383;-72
2023/03/20 11:24:40;;;;;;;;;2.25;2.25;;;;;13.90;54.29;101701.72;6276420;22;45406;-73
2023/03/20 11:27:10;;;;;;;;;3.50;2.00;;;;;14.08;53.98;101713.69;6275226;22;46319;-77
2023/03/20 11:29:37;;;;;;;;;5.25;3.25;;;;;14.12;53.90;101717.16;6275812;22;45942;-73